sensor_id;sensor_type;location;lat;lon;timestamp;P1;durP1;ratioP1;P2;durP2;ratioP2
2129;SDS011;1071;52.544;13.374;2023-03-01T00:02:19;21.80;;;17.13;;
2129;SDS011;1071;52.544;13.374;2023-03-01T00:04:46;30.17;;;18.55;;
2129;SDS011;1071;52.544;13.374;2023-03-01T00:07:14;26.25;;;19.60;;
2129;SDS011;1071;52.544;13.374;2023-03-01T00:09:41;23.77;;;20.70;;
2129;SDS011;1071;52.544;13.374;2023-03-01T00:12:12;28.20;;;21.13;;
2129;SDS011;1071;52.544;13.374;2023-03-01T00:14:40;23.30;;;18.95;;
2129;SDS011;1071;52.544;13.374;2023-03-01T00:17:07;27.63;;;20.45;;
2129;SDS011;1071;52.544;13.374;2023-03-01T00:19:34;32.15;;;21.35;;
2129;SDS011;1071;52.544;13.374;2023-03-01T00:22:02;29.90;;;22.70;;
2129;SDS011;1071;52.544;13.374;2023-03-01T00:24:29;29.17;;;21.30;;
2129;SDS011;1071;52.544;13.374;2023-03-01T00:26:57;35.03;;;22.13;;
2129;SDS011;1071;52.544;13.374;2023-03-01T00:29:26;31.00;;;22.05;;
2129;SDS011;1071;52.544;13.374;2023-03-01T00:31:53;28.23;;;21.95;;
2129;SDS011;1071;52.544;13.374;2023-03-01T00:34:20;28.85;;;21.17;;
2129;SDS011;1071;52.544;13.374;2023-03-01T00:36:47;23.83;;;19.77;;
2129;SDS011;1071;52.544;13.374;2023-03-01T00:39:14;27.70;;;19.45;;
2129;SDS011;1071;52.544;13.374;2023-03-01T00:41:42;25.80;;;18.10;;
2129;SDS011;1071;52.544;13.374;2023-03-01T00:44:09;25.20;;;19.73;;
2129;SDS011;1071;52.544;13.374;2023-03-01T00:46:38;24.70;;;20.00;;
2129;SDS011;1071;52.544;13.374;2023-03-01T00:49:06;23.30;;;20.42;;
2129;SDS011;1071;52.544;13.374;2023-03-01T00:51:33;25.80;;;20.02;;
2129;SDS011;1071;52.544;13.374;2023-03-01T00:54:01;27.35;;;20.30;;
2129;SDS011;1071;52.544;13.374;2023-03-01T00:56:29;28.60;;;21.63;;
2129;SDS011;1071;52.544;13.374;2023-03-01T00:58:57;28.25;;;22.30;;
2129;SDS011;1071;52.544;13.374;2023-03-01T01:01:25;24.05;;;19.48;;
2129;SDS011;1071;52.544;13.374;2023-03-01T01:03:57;30.02;;;20.65;;
2129;SDS011;1071;52.544;13.374;2023-03-01T01:06:27;26.90;;;21.65;;
2129;SDS011;1071;52.544;13.374;2023-03-01T01:08:56;32.38;;;24.20;;
2129;SDS011;1071;52.544;13.374;2023-03-01T01:11:25;29.45;;;22.60;;
2129;SDS011;1071;52.544;13.374;2023-03-01T01:13:54;28.70;;;23.40;;
2129;SDS011;1071;52.544;13.374;2023-03-01T01:16:22;30.98;;;22.95;;
2129;SDS011;1071;52.544;13.374;2023-03-01T01:18:51;32.40;;;24.60;;
2129;SDS011;1071;52.544;13.374;2023-03-01T01:21:21;28.00;;;24.17;;
2129;SDS011;1071;52.544;13.374;2023-03-01T01:23:50;29.92;;;23.35;;
2129;SDS011;1071;52.544;13.374;2023-03-01T01:26:19;27.38;;;21.88;;
2129;SDS011;1071;52.544;13.374;2023-03-01T01:28:47;25.80;;;22.67;;
2129;SDS011;1071;52.544;13.374;2023-03-01T01:31:15;23.85;;;21.10;;
2129;SDS011;1071;52.544;13.374;2023-03-01T01:33:42;25.98;;;21.58;;
2129;SDS011;1071;52.544;13.374;2023-03-01T01:36:09;25.52;;;20.67;;
2129;SDS011;1071;52.544;13.374;2023-03-01T01:38:39;25.55;;;21.20;;
2129;SDS011;1071;52.544;13.374;2023-03-01T01:41:07;22.10;;;18.90;;
2129;SDS011;1071;52.544;13.374;2023-03-01T01:43:38;27.98;;;20.92;;
2129;SDS011;1071;52.544;13.374;2023-03-01T01:46:10;24.60;;;20.75;;
2129;SDS011;1071;52.544;13.374;2023-03-01T01:48:46;25.73;;;21.10;;
2129;SDS011;1071;52.544;13.374;2023-03-01T01:51:17;23.38;;;19.08;;
2129;SDS011;1071;52.544;13.374;2023-03-01T01:53:51;22.23;;;19.13;;
2129;SDS011;1071;52.544;13.374;2023-03-01T01:56:22;20.95;;;18.20;;
2129;SDS011;1071;52.544;13.374;2023-03-01T01:58:50;21.58;;;17.40;;
2129;SDS011;1071;52.544;13.374;2023-03-01T02:01:20;19.55;;;15.35;;
2129;SDS011;1071;52.544;13.374;2023-03-01T02:03:47;23.27;;;15.50;;
2129;SDS011;1071;52.544;13.374;2023-03-01T02:06:17;16.30;;;14.60;;
2129;SDS011;1071;52.544;13.374;2023-03-01T02:08:48;17.77;;;15.35;;
2129;SDS011;1071;52.544;13.374;2023-03-01T02:11:19;19.63;;;14.48;;
2129;SDS011;1071;52.544;13.374;2023-03-01T02:13:47;19.42;;;15.68;;
2129;SDS011;1071;52.544;13.374;2023-03-01T02:16:15;27.15;;;17.88;;
2129;SDS011;1071;52.544;13.374;2023-03-01T02:18:43;21.52;;;17.15;;
2129;SDS011;1071;52.544;13.374;2023-03-01T02:21:17;21.95;;;18.73;;
2129;SDS011;1071;52.544;13.374;2023-03-01T02:24:03;24.20;;;17.98;;
2129;SDS011;1071;52.544;13.374;2023-03-01T02:26:43;20.75;;;16.15;;
2129;SDS011;1071;52.544;13.374;2023-03-01T02:29:17;20.00;;;16.77;;
2129;SDS011;1071;52.544;13.374;2023-03-01T02:31:44;20.17;;;16.63;;
2129;SDS011;1071;52.544;13.374;2023-03-01T02:34:11;22.63;;;17.33;;
2129;SDS011;1071;52.544;13.374;2023-03-01T02:36:43;22.10;;;17.08;;
2129;SDS011;1071;52.544;13.374;2023-03-01T02:39:18;21.73;;;16.35;;
2129;SDS011;1071;52.544;13.374;2023-03-01T02:41:49;19.40;;;17.38;;
2129;SDS011;1071;52.544;13.374;2023-03-01T02:44:20;22.58;;;17.92;;
2129;SDS011;1071;52.544;13.374;2023-03-01T02:46:50;21.63;;;16.10;;
2129;SDS011;1071;52.544;13.374;2023-03-01T02:49:22;18.17;;;15.40;;
2129;SDS011;1071;52.544;13.374;2023-03-01T02:52:01;19.60;;;15.55;;
2129;SDS011;1071;52.544;13.374;2023-03-01T02:54:41;27.02;;;16.60;;
2129;SDS011;1071;52.544;13.374;2023-03-01T02:57:13;17.42;;;15.63;;
2129;SDS011;1071;52.544;13.374;2023-03-01T02:59:42;20.85;;;15.35;;
2129;SDS011;1071;52.544;13.374;2023-03-01T03:02:18;19.65;;;15.32;;
2129;SDS011;1071;52.544;13.374;2023-03-01T03:05:00;21.65;;;16.42;;
2129;SDS011;1071;52.544;13.374;2023-03-01T03:07:31;19.42;;;16.98;;
2129;SDS011;1071;52.544;13.374;2023-03-01T03:09:59;21.33;;;16.15;;
2129;SDS011;1071;52.544;13.374;2023-03-01T03:12:26;21.02;;;15.93;;
2129;SDS011;1071;52.544;13.374;2023-03-01T03:14:54;25.45;;;17.77;;
2129;SDS011;1071;52.544;13.374;2023-03-01T03:17:22;25.67;;;17.55;;
2129;SDS011;1071;52.544;13.374;2023-03-01T03:19:49;20.13;;;15.38;;
2129;SDS011;1071;52.544;13.374;2023-03-01T03:22:16;20.02;;;16.92;;
2129;SDS011;1071;52.544;13.374;2023-03-01T03:24:45;20.02;;;16.88;;
2129;SDS011;1071;52.544;13.374;2023-03-01T03:27:12;22.25;;;16.95;;
2129;SDS011;1071;52.544;13.374;2023-03-01T03:29:39;18.23;;;14.93;;
2129;SDS011;1071;52.544;13.374;2023-03-01T03:32:08;20.08;;;16.45;;
2129;SDS011;1071;52.544;13.374;2023-03-01T03:34:35;21.92;;;15.10;;
2129;SDS011;1071;52.544;13.374;2023-03-01T03:37:02;19.95;;;15.30;;
2129;SDS011;1071;52.544;13.374;2023-03-01T03:39:28;18.95;;;15.23;;
2129;SDS011;1071;52.544;13.374;2023-03-01T03:41:59;23.45;;;16.80;;
2129;SDS011;1071;52.544;13.374;2023-03-01T03:44:29;21.80;;;15.52;;
2129;SDS011;1071;52.544;13.374;2023-03-01T03:46:56;18.90;;;15.55;;
2129;SDS011;1071;52.544;13.374;2023-03-01T03:49:24;20.17;;;15.75;;
2129;SDS011;1071;52.544;13.374;2023-03-01T03:51:51;18.98;;;15.02;;
2129;SDS011;1071;52.544;13.374;2023-03-01T03:54:18;22.70;;;14.80;;
2129;SDS011;1071;52.544;13.374;2023-03-01T03:56:47;22.00;;;15.85;;
2129;SDS011;1071;52.544;13.374;2023-03-01T03:59:14;17.60;;;14.77;;
2129;SDS011;1071;52.544;13.374;2023-03-01T04:01:41;22.65;;;16.45;;
2129;SDS011;1071;52.544;13.374;2023-03-01T04:04:09;19.40;;;15.48;;
2129;SDS011;1071;52.544;13.374;2023-03-01T04:06:37;16.63;;;14.13;;
2129;SDS011;1071;52.544;13.374;2023-03-01T04:09:05;17.17;;;13.30;;
2129;SDS011;1071;52.544;13.374;2023-03-01T04:11:32;19.38;;;14.50;;
2129;SDS011;1071;52.544;13.374;2023-03-01T04:13:59;15.48;;;13.63;;
2129;SDS011;1071;52.544;13.374;2023-03-01T04:16:26;16.65;;;14.95;;
2129;SDS011;1071;52.544;13.374;2023-03-01T04:18:53;22.13;;;16.67;;
2129;SDS011;1071;52.544;13.374;2023-03-01T04:21:21;18.60;;;14.85;;
2129;SDS011;1071;52.544;13.374;2023-03-01T04:23:49;18.70;;;15.50;;
2129;SDS011;1071;52.544;13.374;2023-03-01T04:26:17;17.52;;;15.15;;
2129;SDS011;1071;52.544;13.374;2023-03-01T04:28:45;20.08;;;15.05;;
2129;SDS011;1071;52.544;13.374;2023-03-01T04:31:16;16.80;;;14.57;;
2129;SDS011;1071;52.544;13.374;2023-03-01T04:33:48;17.42;;;13.88;;
2129;SDS011;1071;52.544;13.374;2023-03-01T04:36:17;17.10;;;14.93;;
2129;SDS011;1071;52.544;13.374;2023-03-01T04:38:46;20.95;;;15.48;;
2129;SDS011;1071;52.544;13.374;2023-03-01T04:41:15;19.45;;;15.18;;
2129;SDS011;1071;52.544;13.374;2023-03-01T04:43:43;18.85;;;14.75;;
2129;SDS011;1071;52.544;13.374;2023-03-01T04:46:11;18.15;;;14.98;;
2129;SDS011;1071;52.544;13.374;2023-03-01T04:48:41;17.25;;;13.95;;
2129;SDS011;1071;52.544;13.374;2023-03-01T04:51:09;15.27;;;12.63;;
2129;SDS011;1071;52.544;13.374;2023-03-01T04:53:38;19.20;;;13.45;;
2129;SDS011;1071;52.544;13.374;2023-03-01T04:56:08;20.02;;;13.75;;
2129;SDS011;1071;52.544;13.374;2023-03-01T04:58:37;19.40;;;15.20;;
2129;SDS011;1071;52.544;13.374;2023-03-01T05:01:07;14.93;;;13.10;;
2129;SDS011;1071;52.544;13.374;2023-03-01T05:03:40;16.30;;;13.10;;
2129;SDS011;1071;52.544;13.374;2023-03-01T05:06:07;16.10;;;13.35;;
2129;SDS011;1071;52.544;13.374;2023-03-01T05:08:34;16.77;;;13.40;;
2129;SDS011;1071;52.544;13.374;2023-03-01T05:11:03;15.20;;;13.25;;
2129;SDS011;1071;52.544;13.374;2023-03-01T05:13:30;17.55;;;14.40;;
2129;SDS011;1071;52.544;13.374;2023-03-01T05:16:01;22.00;;;15.60;;
2129;SDS011;1071;52.544;13.374;2023-03-01T05:18:29;19.88;;;15.52;;
2129;SDS011;1071;52.544;13.374;2023-03-01T05:21:01;19.85;;;14.23;;
2129;SDS011;1071;52.544;13.374;2023-03-01T05:23:36;18.30;;;15.00;;
2129;SDS011;1071;52.544;13.374;2023-03-01T05:26:03;20.02;;;13.05;;
2129;SDS011;1071;52.544;13.374;2023-03-01T05:28:31;18.80;;;16.15;;
2129;SDS011;1071;52.544;13.374;2023-03-01T05:31:00;18.98;;;15.82;;
2129;SDS011;1071;52.544;13.374;2023-03-01T05:33:34;20.50;;;16.02;;
2129;SDS011;1071;52.544;13.374;2023-03-01T05:36:09;17.10;;;15.20;;
2129;SDS011;1071;52.544;13.374;2023-03-01T05:38:36;24.40;;;17.27;;
2129;SDS011;1071;52.544;13.374;2023-03-01T05:41:04;20.05;;;16.50;;
2129;SDS011;1071;52.544;13.374;2023-03-01T05:43:31;16.77;;;14.95;;
2129;SDS011;1071;52.544;13.374;2023-03-01T05:46:00;21.10;;;14.15;;
2129;SDS011;1071;52.544;13.374;2023-03-01T05:48:28;15.95;;;14.25;;
2129;SDS011;1071;52.544;13.374;2023-03-01T05:51:00;19.85;;;16.25;;
2129;SDS011;1071;52.544;13.374;2023-03-01T05:53:29;18.05;;;16.02;;
2129;SDS011;1071;52.544;13.374;2023-03-01T05:55:56;17.48;;;15.45;;
2129;SDS011;1071;52.544;13.374;2023-03-01T05:58:23;18.50;;;14.98;;
2129;SDS011;1071;52.544;13.374;2023-03-01T06:00:50;18.20;;;15.93;;
2129;SDS011;1071;52.544;13.374;2023-03-01T06:03:18;23.70;;;18.35;;
2129;SDS011;1071;52.544;13.374;2023-03-01T06:05:45;19.75;;;15.60;;
2129;SDS011;1071;52.544;13.374;2023-03-01T06:08:12;20.67;;;17.50;;
2129;SDS011;1071;52.544;13.374;2023-03-01T06:10:40;19.48;;;17.42;;
2129;SDS011;1071;52.544;13.374;2023-03-01T06:13:07;21.20;;;17.10;;
2129;SDS011;1071;52.544;13.374;2023-03-01T06:15:34;19.55;;;17.27;;
2129;SDS011;1071;52.544;13.374;2023-03-01T06:18:01;20.73;;;18.33;;
2129;SDS011;1071;52.544;13.374;2023-03-01T06:20:29;23.98;;;18.23;;
2129;SDS011;1071;52.544;13.374;2023-03-01T06:22:56;17.08;;;15.13;;
2129;SDS011;1071;52.544;13.374;2023-03-01T06:25:27;23.88;;;17.55;;
2129;SDS011;1071;52.544;13.374;2023-03-01T06:27:59;22.40;;;18.15;;
2129;SDS011;1071;52.544;13.374;2023-03-01T06:30:26;22.00;;;18.77;;
2129;SDS011;1071;52.544;13.374;2023-03-01T06:32:53;20.77;;;18.58;;
2129;SDS011;1071;52.544;13.374;2023-03-01T06:35:26;20.67;;;16.60;;
2129;SDS011;1071;52.544;13.374;2023-03-01T06:37:56;23.25;;;19.02;;
2129;SDS011;1071;52.544;13.374;2023-03-01T06:40:26;21.60;;;19.17;;
2129;SDS011;1071;52.544;13.374;2023-03-01T06:42:53;34.03;;;26.63;;
2129;SDS011;1071;52.544;13.374;2023-03-01T06:45:20;29.15;;;25.30;;
2129;SDS011;1071;52.544;13.374;2023-03-01T06:47:47;29.70;;;22.00;;
2129;SDS011;1071;52.544;13.374;2023-03-01T06:50:17;29.35;;;20.95;;
2129;SDS011;1071;52.544;13.374;2023-03-01T06:52:44;27.27;;;20.02;;
2129;SDS011;1071;52.544;13.374;2023-03-01T06:55:13;25.77;;;19.45;;
2129;SDS011;1071;52.544;13.374;2023-03-01T06:57:40;25.30;;;18.10;;
2129;SDS011;1071;52.544;13.374;2023-03-01T07:00:08;22.92;;;16.42;;
2129;SDS011;1071;52.544;13.374;2023-03-01T07:02:35;21.65;;;18.50;;
2129;SDS011;1071;52.544;13.374;2023-03-01T07:05:02;25.33;;;18.67;;
2129;SDS011;1071;52.544;13.374;2023-03-01T07:07:30;26.73;;;20.63;;
2129;SDS011;1071;52.544;13.374;2023-03-01T07:09:57;27.73;;;18.98;;
2129;SDS011;1071;52.544;13.374;2023-03-01T07:12:28;24.05;;;19.67;;
2129;SDS011;1071;52.544;13.374;2023-03-01T07:14:55;25.58;;;20.00;;
2129;SDS011;1071;52.544;13.374;2023-03-01T07:17:22;24.80;;;21.00;;
2129;SDS011;1071;52.544;13.374;2023-03-01T07:19:49;26.88;;;21.02;;
2129;SDS011;1071;52.544;13.374;2023-03-01T07:22:16;34.10;;;22.20;;
2129;SDS011;1071;52.544;13.374;2023-03-01T07:24:43;27.38;;;19.55;;
2129;SDS011;1071;52.544;13.374;2023-03-01T07:27:10;27.73;;;20.52;;
2129;SDS011;1071;52.544;13.374;2023-03-01T07:29:39;28.00;;;21.73;;
2129;SDS011;1071;52.544;13.374;2023-03-01T07:32:06;29.88;;;22.30;;
2129;SDS011;1071;52.544;13.374;2023-03-01T07:34:33;25.92;;;20.05;;
2129;SDS011;1071;52.544;13.374;2023-03-01T07:37:00;27.42;;;20.85;;
2129;SDS011;1071;52.544;13.374;2023-03-01T07:39:27;29.25;;;21.77;;
2129;SDS011;1071;52.544;13.374;2023-03-01T07:41:54;26.25;;;20.45;;
2129;SDS011;1071;52.544;13.374;2023-03-01T07:44:21;26.85;;;20.58;;
2129;SDS011;1071;52.544;13.374;2023-03-01T07:46:52;25.65;;;20.52;;
2129;SDS011;1071;52.544;13.374;2023-03-01T07:49:21;21.85;;;18.30;;
2129;SDS011;1071;52.544;13.374;2023-03-01T07:51:48;24.98;;;18.80;;
2129;SDS011;1071;52.544;13.374;2023-03-01T07:54:15;25.00;;;19.77;;
2129;SDS011;1071;52.544;13.374;2023-03-01T07:56:43;21.30;;;19.00;;
2129;SDS011;1071;52.544;13.374;2023-03-01T07:59:10;25.63;;;20.00;;
2129;SDS011;1071;52.544;13.374;2023-03-01T08:01:37;26.15;;;18.15;;
2129;SDS011;1071;52.544;13.374;2023-03-01T08:04:05;26.35;;;19.33;;
2129;SDS011;1071;52.544;13.374;2023-03-01T08:06:33;23.30;;;18.55;;
2129;SDS011;1071;52.544;13.374;2023-03-01T08:09:02;24.25;;;17.42;;
2129;SDS011;1071;52.544;13.374;2023-03-01T08:11:31;22.40;;;15.77;;
2129;SDS011;1071;52.544;13.374;2023-03-01T08:14:01;21.02;;;15.63;;
2129;SDS011;1071;52.544;13.374;2023-03-01T08:16:28;19.42;;;16.40;;
2129;SDS011;1071;52.544;13.374;2023-03-01T08:18:55;17.98;;;14.68;;
2129;SDS011;1071;52.544;13.374;2023-03-01T08:21:33;21.10;;;16.70;;
2129;SDS011;1071;52.544;13.374;2023-03-01T08:24:00;17.85;;;14.43;;
2129;SDS011;1071;52.544;13.374;2023-03-01T08:26:27;15.80;;;13.98;;
2129;SDS011;1071;52.544;13.374;2023-03-01T08:28:56;17.45;;;14.07;;
2129;SDS011;1071;52.544;13.374;2023-03-01T08:31:23;13.77;;;11.95;;
2129;SDS011;1071;52.544;13.374;2023-03-01T08:33:52;13.75;;;11.07;;
2129;SDS011;1071;52.544;13.374;2023-03-01T08:36:24;10.45;;;9.15;;
2129;SDS011;1071;52.544;13.374;2023-03-01T08:38:52;10.80;;;9.02;;
2129;SDS011;1071;52.544;13.374;2023-03-01T08:41:20;8.43;;;7.60;;
2129;SDS011;1071;52.544;13.374;2023-03-01T08:43:49;9.15;;;8.27;;
2129;SDS011;1071;52.544;13.374;2023-03-01T08:46:23;7.65;;;6.88;;
2129;SDS011;1071;52.544;13.374;2023-03-01T08:48:50;6.57;;;5.97;;
2129;SDS011;1071;52.544;13.374;2023-03-01T08:51:18;6.80;;;5.95;;
2129;SDS011;1071;52.544;13.374;2023-03-01T08:53:47;9.20;;;7.45;;
2129;SDS011;1071;52.544;13.374;2023-03-01T08:56:15;8.98;;;7.60;;
2129;SDS011;1071;52.544;13.374;2023-03-01T08:58:44;14.68;;;11.73;;
2129;SDS011;1071;52.544;13.374;2023-03-01T09:01:15;15.77;;;14.23;;
2129;SDS011;1071;52.544;13.374;2023-03-01T09:03:43;15.85;;;14.15;;
2129;SDS011;1071;52.544;13.374;2023-03-01T09:06:11;12.93;;;11.15;;
2129;SDS011;1071;52.544;13.374;2023-03-01T09:08:39;10.13;;;9.05;;
2129;SDS011;1071;52.544;13.374;2023-03-01T09:11:09;9.98;;;7.10;;
2129;SDS011;1071;52.544;13.374;2023-03-01T09:13:37;10.13;;;7.75;;
2129;SDS011;1071;52.544;13.374;2023-03-01T09:16:05;10.32;;;6.65;;
2129;SDS011;1071;52.544;13.374;2023-03-01T09:18:34;7.82;;;6.30;;
2129;SDS011;1071;52.544;13.374;2023-03-01T09:21:02;8.80;;;7.53;;
2129;SDS011;1071;52.544;13.374;2023-03-01T09:23:32;10.93;;;7.05;;
2129;SDS011;1071;52.544;13.374;2023-03-01T09:26:01;7.90;;;7.13;;
2129;SDS011;1071;52.544;13.374;2023-03-01T09:28:30;8.25;;;6.30;;
2129;SDS011;1071;52.544;13.374;2023-03-01T09:30:57;7.75;;;6.82;;
2129;SDS011;1071;52.544;13.374;2023-03-01T09:33:25;8.25;;;6.65;;
2129;SDS011;1071;52.544;13.374;2023-03-01T09:35:55;8.30;;;6.72;;
2129;SDS011;1071;52.544;13.374;2023-03-01T09:38:23;7.88;;;7.10;;
2129;SDS011;1071;52.544;13.374;2023-03-01T09:40:50;9.68;;;7.30;;
2129;SDS011;1071;52.544;13.374;2023-03-01T09:43:18;10.30;;;8.70;;
2129;SDS011;1071;52.544;13.374;2023-03-01T09:45:54;9.82;;;8.38;;
2129;SDS011;1071;52.544;13.374;2023-03-01T09:48:26;9.52;;;7.65;;
2129;SDS011;1071;52.544;13.374;2023-03-01T09:50:55;7.28;;;6.53;;
2129;SDS011;1071;52.544;13.374;2023-03-01T09:53:24;9.20;;;7.57;;
2129;SDS011;1071;52.544;13.374;2023-03-01T09:55:59;7.63;;;6.35;;
2129;SDS011;1071;52.544;13.374;2023-03-01T09:58:31;9.70;;;7.32;;
2129;SDS011;1071;52.544;13.374;2023-03-01T10:01:10;7.32;;;6.47;;
2129;SDS011;1071;52.544;13.374;2023-03-01T10:03:55;15.85;;;8.75;;
2129;SDS011;1071;52.544;13.374;2023-03-01T10:06:36;12.30;;;8.23;;
2129;SDS011;1071;52.544;13.374;2023-03-01T10:09:05;8.70;;;7.32;;
2129;SDS011;1071;52.544;13.374;2023-03-01T10:11:41;7.43;;;6.70;;
2129;SDS011;1071;52.544;13.374;2023-03-01T10:14:15;8.13;;;6.20;;
2129;SDS011;1071;52.544;13.374;2023-03-01T10:16:53;9.18;;;4.90;;
2129;SDS011;1071;52.544;13.374;2023-03-01T10:19:27;5.65;;;5.10;;
2129;SDS011;1071;52.544;13.374;2023-03-01T10:22:00;7.22;;;6.10;;
2129;SDS011;1071;52.544;13.374;2023-03-01T10:24:40;9.10;;;6.53;;
2129;SDS011;1071;52.544;13.374;2023-03-01T10:27:08;6.70;;;6.10;;
2129;SDS011;1071;52.544;13.374;2023-03-01T10:29:43;6.00;;;5.07;;
2129;SDS011;1071;52.544;13.374;2023-03-01T10:32:17;5.78;;;4.68;;
2129;SDS011;1071;52.544;13.374;2023-03-01T10:34:46;6.22;;;4.15;;
2129;SDS011;1071;52.544;13.374;2023-03-01T10:37:14;3.60;;;3.30;;
2129;SDS011;1071;52.544;13.374;2023-03-01T10:39:56;5.65;;;4.53;;
2129;SDS011;1071;52.544;13.374;2023-03-01T10:42:31;5.80;;;3.67;;
2129;SDS011;1071;52.544;13.374;2023-03-01T10:45:14;5.30;;;4.13;;
2129;SDS011;1071;52.544;13.374;2023-03-01T10:47:44;5.93;;;3.75;;
2129;SDS011;1071;52.544;13.374;2023-03-01T10:50:18;4.47;;;4.07;;
2129;SDS011;1071;52.544;13.374;2023-03-01T10:52:55;3.83;;;3.38;;
2129;SDS011;1071;52.544;13.374;2023-03-01T10:55:25;6.63;;;5.65;;
2129;SDS011;1071;52.544;13.374;2023-03-01T10:58:06;3.95;;;3.65;;
2129;SDS011;1071;52.544;13.374;2023-03-01T11:00:45;4.63;;;4.10;;
2129;SDS011;1071;52.544;13.374;2023-03-01T11:03:16;5.00;;;3.22;;
2129;SDS011;1071;52.544;13.374;2023-03-01T11:06:03;3.88;;;3.38;;
2129;SDS011;1071;52.544;13.374;2023-03-01T11:08:35;5.10;;;4.50;;
2129;SDS011;1071;52.544;13.374;2023-03-01T11:11:13;5.57;;;5.07;;
2129;SDS011;1071;52.544;13.374;2023-03-01T11:13:57;4.70;;;4.30;;
2129;SDS011;1071;52.544;13.374;2023-03-01T11:16:30;5.40;;;4.35;;
2129;SDS011;1071;52.544;13.374;2023-03-01T11:19:04;3.92;;;3.60;;
2129;SDS011;1071;52.544;13.374;2023-03-01T11:21:47;4.45;;;4.10;;
2129;SDS011;1071;52.544;13.374;2023-03-01T11:24:23;5.65;;;3.92;;
2129;SDS011;1071;52.544;13.374;2023-03-01T11:26:56;4.00;;;3.38;;
2129;SDS011;1071;52.544;13.374;2023-03-01T11:29:30;3.85;;;3.55;;
2129;SDS011;1071;52.544;13.374;2023-03-01T11:32:05;3.83;;;3.42;;
2129;SDS011;1071;52.544;13.374;2023-03-01T11:34:40;3.30;;;3.10;;
2129;SDS011;1071;52.544;13.374;2023-03-01T11:37:16;5.60;;;3.08;;
2129;SDS011;1071;52.544;13.374;2023-03-01T11:39:53;3.45;;;2.60;;
2129;SDS011;1071;52.544;13.374;2023-03-01T11:42:26;3.15;;;2.20;;
2129;SDS011;1071;52.544;13.374;2023-03-01T11:45:06;2.13;;;1.70;;
2129;SDS011;1071;52.544;13.374;2023-03-01T11:47:52;2.83;;;1.90;;
2129;SDS011;1071;52.544;13.374;2023-03-01T11:50:30;3.50;;;2.40;;
2129;SDS011;1071;52.544;13.374;2023-03-01T11:53:19;3.95;;;3.60;;
2129;SDS011;1071;52.544;13.374;2023-03-01T11:56:05;3.30;;;3.00;;
2129;SDS011;1071;52.544;13.374;2023-03-01T11:58:49;3.22;;;2.92;;
2129;SDS011;1071;52.544;13.374;2023-03-01T12:01:41;3.20;;;2.70;;
2129;SDS011;1071;52.544;13.374;2023-03-01T12:07:32;3.63;;;3.33;;
2129;SDS011;1071;52.544;13.374;2023-03-01T12:10:17;3.97;;;3.58;;
2129;SDS011;1071;52.544;13.374;2023-03-01T12:12:52;4.68;;;4.00;;
2129;SDS011;1071;52.544;13.374;2023-03-01T12:18:39;3.30;;;3.00;;
2129;SDS011;1071;52.544;13.374;2023-03-01T12:21:30;2.60;;;2.40;;
2129;SDS011;1071;52.544;13.374;2023-03-01T12:24:26;3.00;;;2.80;;
2129;SDS011;1071;52.544;13.374;2023-03-01T12:27:26;3.28;;;2.88;;
2129;SDS011;1071;52.544;13.374;2023-03-01T12:30:09;3.90;;;3.60;;
2129;SDS011;1071;52.544;13.374;2023-03-01T12:32:50;3.33;;;2.97;;
2129;SDS011;1071;52.544;13.374;2023-03-01T12:35:33;3.15;;;2.85;;
2129;SDS011;1071;52.544;13.374;2023-03-01T12:38:19;3.97;;;3.58;;
2129;SDS011;1071;52.544;13.374;2023-03-01T12:41:04;4.65;;;3.78;;
2129;SDS011;1071;52.544;13.374;2023-03-01T12:43:48;4.22;;;3.28;;
2129;SDS011;1071;52.544;13.374;2023-03-01T12:46:29;4.20;;;3.17;;
2129;SDS011;1071;52.544;13.374;2023-03-01T12:49:08;2.63;;;2.42;;
2129;SDS011;1071;52.544;13.374;2023-03-01T12:51:39;4.18;;;2.40;;
2129;SDS011;1071;52.544;13.374;2023-03-01T12:54:11;3.67;;;2.95;;
2129;SDS011;1071;52.544;13.374;2023-03-01T12:56:43;4.70;;;2.78;;
2129;SDS011;1071;52.544;13.374;2023-03-01T12:59:18;3.03;;;2.72;;
2129;SDS011;1071;52.544;13.374;2023-03-01T13:01:52;4.53;;;3.38;;
2129;SDS011;1071;52.544;13.374;2023-03-01T13:04:29;3.53;;;2.55;;
2129;SDS011;1071;52.544;13.374;2023-03-01T13:10:01;3.20;;;2.92;;
2129;SDS011;1071;52.544;13.374;2023-03-01T13:13:00;3.20;;;2.90;;
2129;SDS011;1071;52.544;13.374;2023-03-01T13:15:33;5.13;;;4.30;;
2129;SDS011;1071;52.544;13.374;2023-03-01T13:18:03;5.63;;;4.03;;
2129;SDS011;1071;52.544;13.374;2023-03-01T13:20:53;4.68;;;3.90;;
2129;SDS011;1071;52.544;13.374;2023-03-01T13:23:26;9.68;;;4.55;;
2129;SDS011;1071;52.544;13.374;2023-03-01T13:26:01;3.97;;;3.50;;
2129;SDS011;1071;52.544;13.374;2023-03-01T13:28:40;4.30;;;3.33;;
2129;SDS011;1071;52.544;13.374;2023-03-01T13:37:18;4.03;;;3.70;;
2129;SDS011;1071;52.544;13.374;2023-03-01T13:39:47;3.55;;;2.90;;
2129;SDS011;1071;52.544;13.374;2023-03-01T13:42:31;3.63;;;2.90;;
2129;SDS011;1071;52.544;13.374;2023-03-01T13:45:15;6.20;;;4.10;;
2129;SDS011;1071;52.544;13.374;2023-03-01T13:48:02;2.78;;;2.58;;
2129;SDS011;1071;52.544;13.374;2023-03-01T13:50:36;4.15;;;2.65;;
2129;SDS011;1071;52.544;13.374;2023-03-01T13:53:10;2.58;;;1.92;;
2129;SDS011;1071;52.544;13.374;2023-03-01T13:55:43;2.60;;;2.40;;
2129;SDS011;1071;52.544;13.374;2023-03-01T13:58:16;3.15;;;2.85;;
2129;SDS011;1071;52.544;13.374;2023-03-01T14:00:54;3.45;;;2.72;;
2129;SDS011;1071;52.544;13.374;2023-03-01T14:03:23;3.08;;;2.08;;
2129;SDS011;1071;52.544;13.374;2023-03-01T14:06:00;4.15;;;3.67;;
2129;SDS011;1071;52.544;13.374;2023-03-01T14:08:36;6.25;;;4.43;;
2129;SDS011;1071;52.544;13.374;2023-03-01T14:14:30;6.30;;;4.85;;
2129;SDS011;1071;52.544;13.374;2023-03-01T14:17:22;3.35;;;2.90;;
2129;SDS011;1071;52.544;13.374;2023-03-01T14:20:17;4.70;;;2.65;;
2129;SDS011;1071;52.544;13.374;2023-03-01T14:22:48;3.25;;;2.90;;
2129;SDS011;1071;52.544;13.374;2023-03-01T14:25:19;3.00;;;2.80;;
2129;SDS011;1071;52.544;13.374;2023-03-01T14:27:56;2.75;;;2.45;;
2129;SDS011;1071;52.544;13.374;2023-03-01T14:30:27;3.10;;;2.58;;
2129;SDS011;1071;52.544;13.374;2023-03-01T14:32:59;6.10;;;2.35;;
2129;SDS011;1071;52.544;13.374;2023-03-01T14:35:29;2.53;;;2.10;;
2129;SDS011;1071;52.544;13.374;2023-03-01T14:37:58;1.95;;;1.75;;
2129;SDS011;1071;52.544;13.374;2023-03-01T14:40:27;2.20;;;2.00;;
2129;SDS011;1071;52.544;13.374;2023-03-01T14:42:58;4.05;;;2.58;;
2129;SDS011;1071;52.544;13.374;2023-03-01T14:45:28;3.40;;;2.50;;
2129;SDS011;1071;52.544;13.374;2023-03-01T14:48:00;3.03;;;2.72;;
2129;SDS011;1071;52.544;13.374;2023-03-01T14:50:30;4.38;;;2.13;;
2129;SDS011;1071;52.544;13.374;2023-03-01T14:52:59;3.22;;;1.80;;
2129;SDS011;1071;52.544;13.374;2023-03-01T14:55:29;2.90;;;1.85;;
2129;SDS011;1071;52.544;13.374;2023-03-01T14:58:02;2.25;;;1.98;;
2129;SDS011;1071;52.544;13.374;2023-03-01T15:00:31;4.45;;;2.67;;
2129;SDS011;1071;52.544;13.374;2023-03-01T15:03:04;3.72;;;3.33;;
2129;SDS011;1071;52.544;13.374;2023-03-01T15:05:38;3.20;;;2.97;;
2129;SDS011;1071;52.544;13.374;2023-03-01T15:08:06;6.15;;;2.88;;
2129;SDS011;1071;52.544;13.374;2023-03-01T15:10:34;2.90;;;2.60;;
2129;SDS011;1071;52.544;13.374;2023-03-01T15:13:11;2.38;;;2.17;;
2129;SDS011;1071;52.544;13.374;2023-03-01T15:15:41;2.80;;;2.50;;
2129;SDS011;1071;52.544;13.374;2023-03-01T15:18:16;2.55;;;2.35;;
2129;SDS011;1071;52.544;13.374;2023-03-01T15:20:45;2.83;;;2.30;;
2129;SDS011;1071;52.544;13.374;2023-03-01T15:25:57;3.60;;;3.30;;
2129;SDS011;1071;52.544;13.374;2023-03-01T15:28:26;4.72;;;4.32;;
2129;SDS011;1071;52.544;13.374;2023-03-01T15:30:58;13.77;;;11.43;;
2129;SDS011;1071;52.544;13.374;2023-03-01T15:33:31;14.48;;;12.85;;